Time;durP1;ratioP1;P1;durP2;ratioP2;P2;SDS_P1;SDS_P2;PMS_P1;PMS_P2;Temp;Humidity;BMP_temperature;BMP_pressure;BME280_temperature;BME280_humidity;BME280_pressure;Samples;Min_cycle;Max_cycle;Signal;HPM_P1;HPM_P2
2023/12/30 00:00:00;;;;;;;0.38;0.38;;;;;;;7.55;100.00;98911.88;5098432;28;20052;-58
2023/12/30 00:02:27;;;;;;;0.30;0.30;;;;;;;7.80;100.00;98903.66;5099137;28;20063;-59
2023/12/30 00:04:54;;;;;;;0.30;0.30;;;;;;;7.66;100.00;98912.94;5090060;28;20040;-59
2023/12/30 00:07:21;;;;;;;0.30;0.30;;;;;;;7.76;100.00;98913.16;5071352;28;20052;-58
2023/12/30 00:09:48;;;;;;;0.40;0.40;;;;;;;7.77;100.00;98909.47;5091116;28;20121;-58
2023/12/30 00:12:15;;;;;;;0.30;0.30;;;;;;;7.78;100.00;98908.41;5092776;28;20099;-58
2023/12/30 00:14:42;;;;;;;0.30;0.30;;;;;;;7.87;100.00;98908.88;5091339;28;20060;-58
2023/12/30 00:17:10;;;;;;;0.40;0.40;;;;;;;7.75;100.00;98912.34;5097020;28;20052;-59
2023/12/30 00:19:42;;;;;;;0.30;0.30;;;;;;;7.75;100.00;98917.69;5091385;28;20050;-59
2023/12/30 00:22:09;;;;;;;0.30;0.30;;;;;;;7.71;100.00;98918.38;5095147;28;20044;-59
2023/12/30 00:24:37;;;;;;;0.32;0.32;;;;;;;7.70;100.00;98914.09;5090312;28;20052;-58
2023/12/30 00:27:05;;;;;;;0.30;0.30;;;;;;;7.72;100.00;98933.34;5097236;28;20046;-59
2023/12/30 00:29:32;;;;;;;0.30;0.30;;;;;;;7.64;100.00;98925.69;5071952;28;20489;-58
2023/12/30 00:32:02;;;;;;;0.20;0.20;;;;;;;7.71;100.00;98921.03;5091307;28;20147;-59
2023/12/30 00:34:30;;;;;;;;;;;;;;;7.72;100.00;98933.34;5072702;28;20442;-58
2023/12/30 00:36:57;;;;;;;0.28;0.28;;;;;;;7.71;100.00;98931.72;5093468;28;20475;-58
2023/12/30 00:39:24;;;;;;;0.40;0.40;;;;;;;7.75;100.00;98931.03;5097266;28;20126;-58
2023/12/30 00:41:51;;;;;;;0.30;0.30;;;;;;;7.78;100.00;98927.09;5094525;28;20067;-59
2023/12/30 00:44:19;;;;;;;0.30;0.30;;;;;;;7.75;100.00;98927.56;5086255;28;20048;-59
2023/12/30 00:46:47;;;;;;;0.40;0.40;;;;;;;7.67;100.00;98933.25;5094624;28;20101;-58
2023/12/30 00:49:15;;;;;;;0.30;0.30;;;;;;;7.65;100.00;98933.47;5072799;28;20608;-58
2023/12/30 00:51:43;;;;;;;0.30;0.30;;;;;;;7.53;100.00;98928.09;5075017;28;20051;-59
2023/12/30 00:54:10;;;;;;;0.30;0.30;;;;;;;7.48;100.00;98933.31;5058889;28;20121;-58
2023/12/30 00:56:37;;;;;;;0.30;0.30;;;;;;;7.39;100.00;98934.72;5097158;28;20047;-58
2023/12/30 00:59:05;;;;;;;0.30;0.30;;;;;;;7.48;100.00;98937.84;5084997;28;20322;-59
2023/12/30 01:01:32;;;;;;;0.25;0.25;;;;;;;7.45;100.00;98944.44;5087770;28;20097;-58
2023/12/30 01:04:00;;;;;;;0.40;0.40;;;;;;;7.52;100.00;98944.34;5073916;28;20047;-59
2023/12/30 01:06:27;;;;;;;0.30;0.30;;;;;;;7.47;100.00;98945.03;5070325;28;20101;-59
2023/12/30 01:08:55;;;;;;;0.30;0.30;;;;;;;7.46;100.00;98946.09;5089027;28;20040;-58
2023/12/30 01:11:22;;;;;;;0.30;0.30;;;;;;;7.47;100.00;98949.56;5094611;28;20182;-59
2023/12/30 01:13:49;;;;;;;0.40;0.40;;;;;;;7.50;100.00;98936.56;5083708;28;20078;-59
2023/12/30 01:16:17;;;;;;;0.40;0.40;;;;;;;7.58;100.00;98948.75;5090620;28;20050;-59
2023/12/30 01:18:44;;;;;;;0.30;0.30;;;;;;;7.63;100.00;98951.53;5096625;28;20468;-59
2023/12/30 01:21:11;;;;;;;0.20;0.20;;;;;;;7.68;100.00;98946.31;5090177;28;20047;-59
2023/12/30 01:23:39;;;;;;;0.30;0.30;;;;;;;7.63;100.00;98956.06;5091099;28;20124;-59
2023/12/30 01:26:07;;;;;;;0.30;0.30;;;;;;;7.65;100.00;98954.00;5055762;28;20085;-59
2023/12/30 01:28:35;;;;;;;0.30;0.30;;;;;;;7.64;100.00;98952.34;5073701;28;20062;-58
2023/12/30 01:31:02;;;;;;;0.30;0.30;;;;;;;7.52;100.00;98958.50;5094018;28;20055;-58
2023/12/30 01:33:29;;;;;;;0.40;0.40;;;;;;;7.66;100.00;98966.28;5088503;28;20051;-58
2023/12/30 01:35:56;;;;;;;0.30;0.30;;;;;;;7.54;100.00;98972.41;5089588;28;20044;-59
2023/12/30 01:38:23;;;;;;;0.30;0.30;;;;;;;7.52;100.00;98969.16;5089184;28;20147;-58
2023/12/30 01:40:50;;;;;;;0.40;0.40;;;;;;;7.52;100.00;98971.03;5074929;28;20714;-58
2023/12/30 01:43:26;;;;;;;0.30;0.30;;;;;;;7.59;100.00;98993.06;5092579;28;20277;-58
2023/12/30 01:45:53;;;;;;;0.40;0.40;;;;;;;7.52;100.00;98993.16;5094659;28;20047;-59
2023/12/30 01:48:21;;;;;;;0.30;0.30;;;;;;;7.64;100.00;99000.34;5091838;28;20345;-58
2023/12/30 01:50:48;;;;;;;0.30;0.30;;;;;;;7.63;100.00;99004.09;5093313;28;20036;-59
2023/12/30 01:53:15;;;;;;;0.30;0.30;;;;;;;7.68;100.00;99005.00;5093117;28;20152;-59
2023/12/30 01:55:42;;;;;;;0.30;0.30;;;;;;;7.71;100.00;99003.75;5088941;28;20052;-59
2023/12/30 01:58:10;;;;;;;0.30;0.30;;;;;;;7.72;100.00;99014.19;5068410;28;21241;-58
2023/12/30 02:00:38;;;;;;;0.40;0.40;;;;;;;7.76;100.00;99009.19;5093586;28;20129;-58
2023/12/30 02:03:05;;;;;;;0.30;0.30;;;;;;;7.75;100.00;99013.72;5089888;28;20224;-59
2023/12/30 02:05:32;;;;;;;0.40;0.40;;;;;;;7.62;100.00;99010.47;5094375;28;20059;-59
2023/12/30 02:07:59;;;;;;;0.30;0.30;;;;;;;7.45;100.00;99013.78;5076215;28;20040;-59
2023/12/30 02:10:26;;;;;;;0.30;0.30;;;;;;;7.34;100.00;99001.22;5089833;28;20464;-59
2023/12/30 02:12:53;;;;;;;0.40;0.40;;;;;;;7.28;100.00;99010.13;5092916;28;20333;-59
2023/12/30 02:15:22;;;;;;;0.30;0.30;;;;;;;7.10;100.00;99003.78;5090695;28;20043;-59
2023/12/30 02:17:51;;;;;;;0.30;0.30;;;;;;;7.15;100.00;99013.78;5086166;28;20177;-59
2023/12/30 02:20:18;;;;;;;0.40;0.40;;;;;;;6.99;100.00;99009.91;5070555;28;20047;-59
2023/12/30 02:22:47;;;;;;;0.40;0.40;;;;;;;6.97;100.00;99013.81;5091791;28;20044;-59
2023/12/30 02:25:14;;;;;;;0.40;0.40;;;;;;;6.94;100.00;99012.41;5093040;28;20046;-59
2023/12/30 02:27:42;;;;;;;0.35;0.35;;;;;;;6.89;100.00;99001.63;5077075;28;20040;-62
2023/12/30 02:30:10;;;;;;;0.40;0.40;;;;;;;6.86;100.00;99007.38;5070234;28;20044;-58
2023/12/30 02:32:37;;;;;;;0.30;0.30;;;;;;;6.89;100.00;99010.41;5093881;28;20616;-58
2023/12/30 02:35:05;;;;;;;0.30;0.30;;;;;;;6.91;100.00;99021.66;5088000;28;20044;-58
2023/12/30 02:37:32;;;;;;;0.30;0.30;;;;;;;6.84;100.00;99022.75;5076725;28;20121;-58
2023/12/30 02:40:00;;;;;;;0.40;0.40;;;;;;;6.85;100.00;99019.88;5085858;28;20047;-58
2023/12/30 02:42:27;;;;;;;0.40;0.40;;;;;;;6.86;100.00;99021.53;5067800;28;20086;-58
2023/12/30 02:44:55;;;;;;;0.40;0.40;;;;;;;6.78;100.00;99024.47;5089310;28;20055;-58
2023/12/30 02:47:23;;;;;;;0.40;0.40;;;;;;;6.82;100.00;99024.84;5076407;28;20052;-58
2023/12/30 02:49:50;;;;;;;0.40;0.40;;;;;;;6.76;100.00;99031.06;5085259;28;20043;-58
2023/12/30 02:52:17;;;;;;;0.40;0.40;;;;;;;6.84;100.00;99028.09;5093728;28;20040;-58
2023/12/30 02:54:44;;;;;;;0.38;0.38;;;;;;;6.75;100.00;99030.25;5091885;28;20146;-58
2023/12/30 02:57:12;;;;;;;0.35;0.35;;;;;;;6.80;100.00;99026.94;5086301;28;20120;-58
2023/12/30 02:59:39;;;;;;;0.43;0.43;;;;;;;6.67;100.00;99028.69;5073689;28;20417;-58
2023/12/30 03:02:06;;;;;;;0.50;0.50;;;;;;;6.70;100.00;99024.78;5095715;28;20043;-58
2023/12/30 03:04:33;;;;;;;0.30;0.30;;;;;;;6.75;100.00;99029.44;5093318;28;20036;-58
2023/12/30 03:07:00;;;;;;;0.40;0.40;;;;;;;6.81;100.00;99033.88;5089004;28;20470;-58
2023/12/30 03:09:27;;;;;;;0.30;0.30;;;;;;;6.88;100.00;99034.59;5090748;28;20468;-57
2023/12/30 03:11:54;;;;;;;0.30;0.30;;;;;;;6.85;100.00;99035.06;5096428;28;20123;-58
2023/12/30 03:14:23;;;;;;;0.40;0.40;;;;;;;6.85;100.00;99032.41;5097614;28;20047;-58
2023/12/30 03:16:50;;;;;;;0.30;0.30;;;;;;;6.87;100.00;99039.13;5097234;28;20162;-58
2023/12/30 03:19:17;;;;;;;0.30;0.30;;;;;;;6.80;100.00;99045.56;5076480;28;20036;-58
2023/12/30 03:21:44;;;;;;;0.40;0.40;;;;;;;6.84;100.00;99047.56;5095345;28;20127;-58
2023/12/30 03:24:12;;;;;;;0.30;0.30;;;;;;;6.89;100.00;99044.25;5092112;28;20035;-58
2023/12/30 03:26:40;;;;;;;0.40;0.40;;;;;;;6.86;100.00;99036.69;5097766;28;20043;-58
2023/12/30 03:29:07;;;;;;;0.40;0.40;;;;;;;6.82;100.00;99035.50;5093648;28;20055;-58
2023/12/30 03:31:36;;;;;;;0.30;0.30;;;;;;;6.85;100.00;99045.72;5093339;28;20058;-58
2023/12/30 03:34:03;;;;;;;0.30;0.30;;;;;;;6.78;100.00;99050.31;5095144;28;20142;-58
2023/12/30 03:36:30;;;;;;;0.40;0.40;;;;;;;6.74;100.00;99046.44;5087925;28;20036;-58
2023/12/30 03:38:57;;;;;;;0.30;0.30;;;;;;;6.78;100.00;99034.31;5095688;28;20228;-58
2023/12/30 03:41:25;;;;;;;0.45;0.45;;;;;;;6.78;100.00;99029.00;5076347;28;20058;-58
2023/12/30 03:43:53;;;;;;;0.30;0.30;;;;;;;6.78;100.00;99039.66;5096412;28;20058;-58
2023/12/30 03:46:20;;;;;;;0.30;0.30;;;;;;;6.75;100.00;99037.44;5096160;28;20079;-58
2023/12/30 03:48:48;;;;;;;0.30;0.30;;;;;;;6.79;100.00;99039.44;5092055;28;20094;-58
2023/12/30 03:51:15;;;;;;;0.40;0.40;;;;;;;6.79;100.00;99038.59;5085663;28;20154;-58
2023/12/30 03:53:42;;;;;;;0.50;0.50;;;;;;;6.81;100.00;99042.66;5096691;28;20460;-58
2023/12/30 03:56:11;;;;;;;0.20;0.20;;;;;;;6.84;100.00;99042.25;5073610;28;20596;-58
2023/12/30 03:58:38;;;;;;;0.30;0.30;;;;;;;6.86;100.00;99042.84;5073928;28;20052;-58
2023/12/30 04:01:06;;;;;;;0.30;0.30;;;;;;;6.95;100.00;99039.88;5090195;28;20138;-58
2023/12/30 04:03:33;;;;;;;0.30;0.30;;;;;;;6.89;100.00;99052.25;5098872;28;20131;-58
2023/12/30 04:06:01;;;;;;;0.35;0.35;;;;;;;6.97;100.00;99037.81;5094984;28;20062;-58
2023/12/30 04:08:28;;;;;;;0.40;0.40;;;;;;;6.92;100.00;99041.13;5092062;28;20044;-58
2023/12/30 04:10:55;;;;;;;0.40;0.40;;;;;;;6.99;100.00;99039.19;5092274;28;20068;-58
2023/12/30 04:13:22;;;;;;;0.35;0.35;;;;;;;7.05;100.00;99035.63;5092833;28;20139;-58
2023/12/30 04:15:49;;;;;;;0.30;0.30;;;;;;;6.96;100.00;99042.28;5079527;28;20048;-58
2023/12/30 04:18:16;;;;;;;0.40;0.40;;;;;;;6.99;100.00;99036.53;5070787;28;20051;-58
2023/12/30 04:20:43;;;;;;;0.30;0.30;;;;;;;6.98;100.00;99037.56;5079166;28;20067;-58
2023/12/30 04:23:12;;;;;;;0.30;0.30;;;;;;;6.93;100.00;99042.75;5077475;28;20122;-58
2023/12/30 04:25:39;;;;;;;0.30;0.30;;;;;;;6.99;100.00;99033.88;5089128;28;20040;-58
2023/12/30 04:28:06;;;;;;;0.30;0.30;;;;;;;6.98;100.00;99036.75;5095885;28;20128;-58
2023/12/30 04:30:33;;;;;;;0.38;0.38;;;;;;;6.91;100.00;99039.47;5082077;28;20138;-58
2023/12/30 04:33:00;;;;;;;0.30;0.30;;;;;;;7.05;100.00;99045.47;5076981;28;20067;-58
2023/12/30 04:35:27;;;;;;;0.35;0.35;;;;;;;6.90;100.00;99038.69;5076071;28;20044;-58
2023/12/30 04:37:54;;;;;;;0.20;0.20;;;;;;;6.91;100.00;99027.00;5082328;28;20036;-58
2023/12/30 04:40:24;;;;;;;0.22;0.22;;;;;;;6.92;100.00;99041.13;5076790;28;20043;-58
2023/12/30 04:42:51;;;;;;;0.30;0.30;;;;;;;6.92;100.00;99046.47;5073887;28;20366;-58
2023/12/30 04:45:18;;;;;;;0.30;0.30;;;;;;;6.89;100.00;99042.38;5082844;28;20093;-58
2023/12/30 04:47:45;;;;;;;0.50;0.50;;;;;;;6.83;100.00;99047.78;5090166;28;20035;-58
2023/12/30 04:50:13;;;;;;;0.40;0.40;;;;;;;6.76;100.00;99044.38;5090006;28;20043;-58
2023/12/30 04:52:40;;;;;;;0.40;0.40;;;;;;;6.76;100.00;99041.72;5076367;28;20044;-58
2023/12/30 04:55:08;;;;;;;0.30;0.30;;;;;;;6.79;100.00;99046.59;5071628;28;20480;-59
2023/12/30 04:57:36;;;;;;;0.35;0.35;;;;;;;6.87;100.00;99046.31;5091825;28;20587;-59
2023/12/30 05:00:04;;;;;;;0.40;0.40;;;;;;;6.92;100.00;99041.13;5077591;28;20366;-59
2023/12/30 05:02:31;;;;;;;0.40;0.40;;;;;;;6.86;100.00;99048.16;5096718;28;20043;-59
2023/12/30 05:04:58;;;;;;;0.30;0.30;;;;;;;6.93;100.00;99053.41;5078816;28;20043;-59
2023/12/30 05:07:26;;;;;;;0.30;0.30;;;;;;;6.99;100.00;99057.84;5084844;28;20134;-59
2023/12/30 05:09:53;;;;;;;0.38;0.38;;;;;;;6.85;100.00;99069.69;5088350;28;20141;-59
2023/12/30 05:12:20;;;;;;;0.32;0.32;;;;;;;6.86;100.00;99066.81;5091920;28;20044;-59
2023/12/30 05:14:48;;;;;;;0.40;0.40;;;;;;;6.90;100.00;99067.19;5093095;28;20122;-59
2023/12/30 05:17:15;;;;;;;0.40;0.40;;;;;;;6.84;100.00;99071.56;5092283;28;20074;-59
2023/12/30 05:19:42;;;;;;;0.40;0.40;;;;;;;6.77;100.00;99072.66;5085859;28;20050;-58
2023/12/30 05:22:09;;;;;;;0.40;0.40;;;;;;;6.79;100.00;99073.22;5093168;28;20040;-59
2023/12/30 05:24:39;;;;;;;0.40;0.40;;;;;;;6.77;100.00;99078.00;5091263;28;20040;-59
2023/12/30 05:27:06;;;;;;;0.30;0.30;;;;;;;6.76;100.00;99079.00;5092180;28;20828;-59
2023/12/30 05:29:33;;;;;;;0.40;0.40;;;;;;;6.78;100.00;99088.41;5070974;28;20043;-59
2023/12/30 05:32:03;;;;;;;0.40;0.40;;;;;;;6.71;100.00;99092.97;5095522;28;20046;-58
2023/12/30 05:34:30;;;;;;;0.50;0.50;;;;;;;6.62;100.00;99095.13;5082886;28;20075;-58
2023/12/30 05:36:57;;;;;;;0.50;0.50;;;;;;;6.63;100.00;99103.94;5095520;28;20075;-58
2023/12/30 05:39:24;;;;;;;0.50;0.50;;;;;;;6.59;100.00;99092.06;5068699;28;20132;-58
2023/12/30 05:41:51;;;;;;;0.30;0.30;;;;;;;6.56;100.00;99098.66;5096707;28;20043;-58
2023/12/30 05:44:18;;;;;;;0.32;0.32;;;;;;;6.59;100.00;99089.41;5089701;28;20105;-59
2023/12/30 05:46:45;;;;;;;0.30;0.30;;;;;;;6.60;100.00;99099.03;5091178;28;20047;-59
2023/12/30 05:49:14;;;;;;;0.30;0.30;;;;;;;6.64;100.00;99102.88;5092019;28;20040;-59
2023/12/30 05:51:44;;;;;;;0.40;0.40;;;;;;;6.64;100.00;99093.06;5092605;28;20035;-57
2023/12/30 05:54:11;;;;;;;0.40;0.40;;;;;;;6.64;100.00;99109.03;5092840;28;20040;-59
2023/12/30 05:56:38;;;;;;;0.30;0.30;;;;;;;6.69;100.00;99103.88;5077201;28;20044;-60
2023/12/30 05:59:05;;;;;;;0.40;0.40;;;;;;;6.70;100.00;99112.66;5095598;28;20056;-60
2023/12/30 06:01:32;;;;;;;0.35;0.35;;;;;;;6.74;100.00;99107.69;5089584;28;20052;-59
2023/12/30 06:03:59;;;;;;;0.50;0.50;;;;;;;6.70;100.00;99104.69;5097677;28;20063;-59
2023/12/30 06:06:27;;;;;;;0.40;0.40;;;;;;;6.77;100.00;99110.75;5088574;28;20121;-59
2023/12/30 06:08:54;;;;;;;0.40;0.40;;;;;;;6.80;100.00;99117.50;5093031;28;20040;-60
2023/12/30 06:11:21;;;;;;;0.35;0.35;;;;;;;6.79;100.00;99116.69;5075324;28;20055;-59
2023/12/30 06:13:48;;;;;;;0.40;0.40;;;;;;;6.80;100.00;99122.81;5093931;28;20051;-59
2023/12/30 06:16:15;;;;;;;0.30;0.30;;;;;;;6.79;100.00;99126.50;5091021;28;20514;-60
2023/12/30 06:18:43;;;;;;;0.30;0.30;;;;;;;6.76;100.00;99132.28;5093346;28;20086;-60
2023/12/30 06:21:10;;;;;;;0.30;0.30;;;;;;;6.81;100.00;99137.75;5090575;28;20500;-59
2023/12/30 06:23:40;;;;;;;0.40;0.40;;;;;;;6.87;100.00;99139.56;5098451;28;20036;-58
2023/12/30 06:26:08;;;;;;;0.30;0.30;;;;;;;6.83;100.00;99138.34;5094555;28;20051;-60
2023/12/30 06:28:35;;;;;;;0.40;0.40;;;;;;;6.90;100.00;99133.78;5085878;28;20057;-59
2023/12/30 06:31:02;;;;;;;0.30;0.30;;;;;;;6.93;100.00;99137.84;5072041;28;20050;-60
2023/12/30 06:33:30;;;;;;;0.32;0.32;;;;;;;6.94;100.00;99140.31;5089913;28;20051;-59
2023/12/30 06:35:57;;;;;;;0.40;0.40;;;;;;;6.92;100.00;99139.72;5088030;28;20048;-60
2023/12/30 06:38:25;;;;;;;0.40;0.40;;;;;;;6.84;100.00;99139.97;5069288;28;20440;-58
2023/12/30 06:40:53;;;;;;;0.40;0.40;;;;;;;6.95;100.00;99135.78;5090914;28;20312;-59
2023/12/30 06:43:20;;;;;;;0.32;0.32;;;;;;;6.94;100.00;99134.97;5092069;28;21269;-59
2023/12/30 06:45:47;;;;;;;0.40;0.40;;;;;;;6.88;100.00;99133.19;5071642;28;20782;-59
2023/12/30 06:48:16;;;;;;;0.22;0.22;;;;;;;6.97;100.00;99133.72;5080253;28;20106;-59
2023/12/30 06:50:43;;;;;;;0.43;0.43;;;;;;;6.96;100.00;99127.56;5088214;28;20051;-59
2023/12/30 06:53:10;;;;;;;0.30;0.30;;;;;;;6.91;100.00;99135.41;5089207;28;20047;-59
2023/12/30 06:55:37;;;;;;;0.40;0.40;;;;;;;6.94;100.00;99134.16;5093242;28;20048;-59
2023/12/30 06:58:06;;;;;;;0.40;0.40;;;;;;;6.87;100.00;99135.03;5089891;28;20501;-60
2023/12/30 07:00:33;;;;;;;0.30;0.30;;;;;;;6.85;100.00;99142.44;5087278;28;20097;-59
2023/12/30 07:03:00;;;;;;;0.40;0.40;;;;;;;6.81;100.00;99167.88;5094287;28;20047;-59
2023/12/30 07:05:27;;;;;;;0.40;0.40;;;;;;;6.98;100.00;99141.47;5088186;28;20048;-59
2023/12/30 07:07:54;;;;;;;0.30;0.30;;;;;;;7.00;100.00;99150.06;5096740;28;20321;-60
2023/12/30 07:10:21;;;;;;;0.40;0.40;;;;;;;7.01;100.00;99151.69;5089131;28;20662;-60
2023/12/30 07:12:48;;;;;;;0.35;0.35;;;;;;;7.07;100.00;99161.47;5095269;28;20134;-57
2023/12/30 07:15:16;;;;;;;0.38;0.38;;;;;;;7.02;100.00;99173.84;5087536;28;20147;-60
2023/12/30 07:17:44;;;;;;;0.30;0.30;;;;;;;7.06;100.00;99178.53;5094638;28;20439;-59
2023/12/30 07:20:12;;;;;;;0.40;0.40;;;;;;;7.00;100.00;99171.38;5086794;28;20047;-60
2023/12/30 07:22:39;;;;;;;0.40;0.40;;;;;;;7.05;100.00;99174.22;5092194;28;20051;-59
2023/12/30 07:25:07;;;;;;;0.50;0.50;;;;;;;7.14;100.00;99177.41;5093049;28;20046;-60
2023/12/30 07:27:34;;;;;;;0.40;0.40;;;;;;;6.94;100.00;99177.63;5075387;28;20520;-58
2023/12/30 07:30:01;;;;;;;0.30;0.30;;;;;;;6.95;100.00;99173.09;5086997;28;20177;-58
2023/12/30 07:32:31;;;;;;;0.40;0.40;;;;;;;6.87;100.00;99172.34;5077141;28;20833;-58
2023/12/30 07:34:59;;;;;;;0.30;0.30;;;;;;;6.91;100.00;99170.88;5094405;28;20177;-57
2023/12/30 07:37:27;;;;;;;0.50;0.50;;;;;;;6.91;100.00;99178.88;5073588;28;20047;-57
2023/12/30 07:39:54;;;;;;;0.30;0.30;;;;;;;7.05;100.00;99171.53;5095678;28;20050;-58
2023/12/30 07:42:21;;;;;;;0.30;0.30;;;;;;;7.03;100.00;99170.13;5071021;28;20142;-58
2023/12/30 07:44:48;;;;;;;0.40;0.40;;;;;;;7.03;100.00;99172.81;5091806;28;20126;-58
2023/12/30 07:47:15;;;;;;;0.40;0.40;;;;;;;7.09;100.00;99175.41;5094569;28;20132;-58
2023/12/30 07:49:43;;;;;;;0.40;0.40;;;;;;;7.07;100.00;99169.47;5098642;28;20385;-58
2023/12/30 07:52:10;;;;;;;0.30;0.30;;;;;;;7.20;100.00;99175.72;5099788;28;20054;-58
2023/12/30 07:54:37;;;;;;;0.35;0.35;;;;;;;7.05;100.00;99171.53;5100678;28;20051;-58
2023/12/30 07:57:06;;;;;;;0.40;0.40;;;;;;;7.23;100.00;99175.25;5093385;28;20121;-58
2023/12/30 07:59:33;;;;;;;0.40;0.40;;;;;;;7.11;100.00;99178.66;5056441;28;20051;-58
2023/12/30 08:02:00;;;;;;;0.40;0.40;;;;;;;7.13;100.00;99186.44;5097297;28;20067;-58
2023/12/30 08:04:27;;;;;;;0.40;0.40;;;;;;;7.21;100.00;99178.13;5095962;28;20101;-58
2023/12/30 08:06:56;;;;;;;0.30;0.30;;;;;;;7.23;100.00;99181.41;5087066;28;20039;-58
2023/12/30 08:09:23;;;;;;;0.30;0.30;;;;;;;7.08;100.00;99192.41;5092208;28;20043;-57
2023/12/30 08:11:50;;;;;;;0.30;0.30;;;;;;;7.14;100.00;99193.41;5090558;28;20052;-58
2023/12/30 08:14:18;;;;;;;0.50;0.50;;;;;;;7.22;100.00;99195.78;5088358;28;20036;-58
2023/12/30 08:16:45;;;;;;;0.35;0.35;;;;;;;7.09;100.00;99191.41;5089151;28;20050;-58
2023/12/30 08:19:12;;;;;;;0.40;0.40;;;;;;;7.17;100.00;99198.28;5097130;28;20122;-58
2023/12/30 08:21:39;;;;;;;0.40;0.40;;;;;;;7.09;100.00;99204.72;5092929;28;20523;-58
2023/12/30 08:24:09;;;;;;;0.40;0.40;;;;;;;7.15;100.00;99204.88;5093863;28;20518;-58
2023/12/30 08:26:37;;;;;;;0.30;0.30;;;;;;;7.06;100.00;99213.16;5085875;28;20079;-58
2023/12/30 08:29:06;;;;;;;0.32;0.32;;;;;;;7.10;100.00;99209.00;5092568;28;20158;-58
2023/12/30 08:31:35;;;;;;;0.40;0.40;;;;;;;7.13;100.00;99197.91;5095155;28;20116;-58
2023/12/30 08:34:02;;;;;;;0.30;0.30;;;;;;;7.06;100.00;99201.66;5094495;28;20063;-58
2023/12/30 08:36:29;;;;;;;0.40;0.40;;;;;;;7.26;100.00;99201.47;5094856;28;20043;-59
2023/12/30 08:38:56;;;;;;;0.40;0.40;;;;;;;7.33;100.00;99196.88;5077833;28;20054;-59
2023/12/30 08:41:27;;;;;;;0.30;0.30;;;;;;;7.17;100.00;99203.63;5080525;28;20081;-59
2023/12/30 08:43:56;;;;;;;;;;;;;;;7.30;100.00;99197.34;5097624;28;20126;-58
2023/12/30 08:46:23;;;;;;;0.30;0.30;;;;;;;7.19;100.00;99206.03;5089466;28;19927;-59
2023/12/30 08:48:50;;;;;;;0.30;0.30;;;;;;;7.21;100.00;99210.13;5094555;28;20164;-59
2023/12/30 08:51:17;;;;;;;0.40;0.40;;;;;;;7.35;100.00;99218.81;5085825;28;20048;-59
2023/12/30 08:53:44;;;;;;;0.40;0.40;;;;;;;7.50;100.00;99208.59;5090049;28;20067;-58
2023/12/30 08:56:11;;;;;;;0.40;0.40;;;;;;;7.42;100.00;99214.22;5088013;28;20043;-59
2023/12/30 08:58:40;;;;;;;0.40;0.40;;;;;;;7.63;100.00;99218.28;5092910;28;20047;-59
2023/12/30 09:01:07;;;;;;;0.30;0.30;;;;;;;7.79;100.00;99216.88;5093297;28;20595;-59
2023/12/30 09:03:34;;;;;;;0.40;0.40;;;;;;;7.90;100.00;99224.13;5094925;28;20417;-59
2023/12/30 09:06:01;;;;;;;0.30;0.30;;;;;;;7.97;100.00;99224.03;5096435;28;20077;-58
2023/12/30 09:08:28;;;;;;;0.35;0.35;;;;;;;7.97;100.00;99234.72;5097858;28;20482;-59
2023/12/30 09:10:55;;;;;;;0.30;0.30;;;;;;;8.12;100.00;99242.31;5097789;28;20283;-59
2023/12/30 09:13:22;;;;;;;0.32;0.32;;;;;;;8.28;100.00;99241.66;5087030;28;20088;-59
2023/12/30 09:15:51;;;;;;;0.40;0.40;;;;;;;8.24;100.00;99247.69;5076915;28;20051;-58
2023/12/30 09:18:18;;;;;;;0.30;0.30;;;;;;;8.32;100.00;99245.53;5090138;28;20156;-58
2023/12/30 09:20:45;;;;;;;0.40;0.40;;;;;;;8.56;100.00;99251.78;5092130;28;20131;-58
2023/12/30 09:23:12;;;;;;;0.38;0.38;;;;;;;8.63;100.00;99257.03;5098592;28;20138;-58
2023/12/30 09:25:39;;;;;;;0.30;0.30;;;;;;;8.83;100.00;99248.69;5093103;28;20393;-58
2023/12/30 09:28:06;;;;;;;0.25;0.25;;;;;;;8.60;100.00;99252.94;5093611;28;20049;-58
2023/12/30 09:30:33;;;;;;;0.30;0.30;;;;;;;9.18;100.00;99262.09;5086429;28;20036;-58
2023/12/30 09:33:02;;;;;;;0.35;0.35;;;;;;;9.14;100.00;99260.13;5088801;28;20197;-58
2023/12/30 09:35:29;;;;;;;0.32;0.32;;;;;;;9.45;100.00;99266.97;5086823;28;21017;-58
2023/12/30 09:37:56;;;;;;;0.30;0.30;;;;;;;9.52;100.00;99267.66;5089738;28;20047;-58
2023/12/30 09:40:23;;;;;;;0.30;0.30;;;;;;;9.41;100.00;99271.16;5088576;28;20054;-58
2023/12/30 09:42:51;;;;;;;0.30;0.30;;;;;;;9.33;100.00;99269.63;5077364;28;20059;-58
2023/12/30 09:45:21;;;;;;;0.30;0.30;;;;;;;9.52;100.00;99272.22;5089509;28;20611;-58
2023/12/30 09:47:48;;;;;;;0.30;0.30;;;;;;;9.52;100.00;99281.03;5086333;28;20047;-58
2023/12/30 09:50:17;;;;;;;0.30;0.30;;;;;;;9.66;100.00;99285.09;5087492;28;20048;-58
2023/12/30 09:52:44;;;;;;;0.20;0.20;;;;;;;9.94;100.00;99283.53;5078859;28;20044;-58
2023/12/30 09:55:11;;;;;;;0.30;0.30;;;;;;;9.76;100.00;99281.00;5065387;28;20569;-58
2023/12/30 09:57:38;;;;;;;0.30;0.30;;;;;;;9.79;100.00;99284.03;5088603;28;20111;-59
2023/12/30 10:00:07;;;;;;;0.32;0.32;;;;;;;9.68;100.00;99284.84;5094410;28;20063;-58
2023/12/30 10:02:34;;;;;;;0.30;0.30;;;;;;;9.74;100.00;99277.78;5068382;28;20502;-59
2023/12/30 10:05:02;;;;;;;0.30;0.30;;;;;;;10.02;100.00;99280.47;5084987;28;20052;-59
2023/12/30 10:07:34;;;;;;;0.30;0.30;;;;;;;10.06;100.00;99276.28;5082148;28;20044;-61
2023/12/30 10:10:07;;;;;;;0.20;0.20;;;;;;;10.01;100.00;99278.03;5086520;28;20132;-59
2023/12/30 10:12:35;;;;;;;0.30;0.30;;;;;;;9.86;100.00;99283.88;5083428;28;20042;-59
2023/12/30 10:15:06;;;;;;;0.35;0.35;;;;;;;10.27;98.19;99272.13;5082378;28;20142;-60
2023/12/30 10:17:34;;;;;;;0.30;0.30;;;;;;;10.02;95.95;99267.09;5086359;28;20627;-61
2023/12/30 10:20:01;;;;;;;0.30;0.30;;;;;;;9.77;95.19;99266.59;5070273;28;20132;-61
2023/12/30 10:22:28;;;;;;;0.10;0.10;;;;;;;10.21;96.70;99272.25;5087234;28;20048;-61
2023/12/30 10:24:57;;;;;;;0.30;0.30;;;;;;;10.56;97.50;99264.94;5087314;28;20146;-60
2023/12/30 10:27:25;;;;;;;0.20;0.20;;;;;;;10.30;93.26;99260.97;5088919;28;20041;-60
2023/12/30 10:29:55;;;;;;;0.20;0.20;;;;;;;10.43;96.84;99262.53;5080794;28;20370;-59
2023/12/30 10:32:22;;;;;;;0.20;0.20;;;;;;;10.43;93.98;99259.84;5089863;28;20043;-60
2023/12/30 10:34:50;;;;;;;0.13;0.13;;;;;;;10.35;94.67;99261.03;5084470;28;20615;-60
2023/12/30 10:37:17;;;;;;;0.30;0.30;;;;;;;10.29;95.19;99261.22;5085788;28;20260;-59
2023/12/30 10:39:45;;;;;;;0.30;0.30;;;;;;;10.37;96.06;99252.78;5086558;28;20435;-59
2023/12/30 10:42:15;;;;;;;0.30;0.30;;;;;;;10.50;95.18;99257.84;5087533;28;20051;-59
2023/12/30 10:44:42;;;;;;;0.30;0.30;;;;;;;10.54;92.38;99248.25;5084268;28;20544;-59
2023/12/30 10:47:09;;;;;;;0.30;0.30;;;;;;;10.49;91.48;99250.84;5085661;28;20072;-59
2023/12/30 10:49:37;;;;;;;0.30;0.30;;;;;;;10.40;91.71;99252.28;5083893;28;20086;-59
2023/12/30 10:52:04;;;;;;;0.20;0.20;;;;;;;10.12;92.08;99251.22;5091973;28;20246;-60
2023/12/30 10:54:35;;;;;;;0.20;0.20;;;;;;;10.40;90.86;99254.97;5082022;28;20498;-59
2023/12/30 10:57:05;;;;;;;0.20;0.20;;;;;;;11.02;89.49;99238.03;5077848;28;20036;-60
2023/12/30 10:59:34;;;;;;;0.20;0.20;;;;;;;10.96;86.68;99247.88;5075685;28;20047;-59
2023/12/30 11:02:02;;;;;;;0.28;0.28;;;;;;;11.06;86.29;99249.91;5086669;28;20040;-59
2023/12/30 11:04:29;;;;;;;0.30;0.30;;;;;;;11.11;86.28;99241.16;5066799;28;20468;-59
2023/12/30 11:06:57;;;;;;;0.20;0.20;;;;;;;10.77;85.60;99235.78;5088998;28;20047;-59
2023/12/30 11:09:25;;;;;;;0.28;0.28;;;;;;;10.95;84.72;99237.41;5088652;28;20134;-59
2023/12/30 11:11:52;;;;;;;0.28;0.28;;;;;;;11.16;85.27;99241.22;5087867;28;20043;-59
2023/12/30 11:14:20;;;;;;;0.30;0.30;;;;;;;11.39;85.28;99243.69;5085842;28;20039;-59
2023/12/30 11:16:50;;;;;;;0.20;0.20;;;;;;;11.18;83.49;99236.41;5090505;28;20409;-59
2023/12/30 11:19:25;;;;;;;0.20;0.20;;;;;;;10.33;81.96;99235.56;5077066;28;20044;-59
2023/12/30 11:21:54;;;;;;;0.15;0.15;;;;;;;10.78;85.08;99242.75;5091108;28;20041;-59
2023/12/30 11:24:21;;;;;;;0.20;0.20;;;;;;;10.61;85.28;99231.19;5071834;28;20120;-59
2023/12/30 11:26:48;;;;;;;0.20;0.20;;;;;;;10.14;86.56;99226.88;5088189;28;20292;-59
2023/12/30 11:29:15;;;;;;;0.20;0.20;;;;;;;10.29;87.16;99229.06;5083649;28;20105;-59
2023/12/30 11:31:43;;;;;;;0.20;0.20;;;;;;;10.09;87.63;99221.44;5091130;28;20490;-59
2023/12/30 11:34:13;;;;;;;0.20;0.20;;;;;;;9.69;90.27;99217.72;5084812;28;20184;-59